Time;durP1;ratioP1;P1;durP2;ratioP2;P2;SDS_P1;SDS_P2;PMS_P1;PMS_P2;Temp;Humidity;BMP_temperature;BMP_pressure;BME280_temperature;BME280_humidity;BME280_pressure;Samples;Min_cycle;Max_cycle;Signal;HPM_P1;HPM_P2
2022/07/01 00:01:36;;;;;;;0.10;0.10;;;;;;;25.63;63.86;99889.34;4993577;28;20492;-75
2022/07/01 00:04:03;;;;;;;0.10;0.10;;;;;;;25.60;63.64;99891.06;4993854;28;20525;-77
2022/07/01 00:06:28;;;;;;;0.10;0.10;;;;;;;25.53;61.58;99895.03;4993855;28;20037;-74
2022/07/01 00:08:54;;;;;;;0.10;0.10;;;;;;;25.47;60.26;99888.38;4993781;28;20034;-75
2022/07/01 00:11:20;;;;;;;0.10;0.10;;;;;;;25.46;57.97;99892.47;4993681;28;20038;-76
2022/07/01 00:13:46;;;;;;;0.10;0.10;;;;;;;25.48;58.05;99898.50;4977319;28;20031;-76
2022/07/01 00:16:12;;;;;;;0.20;0.20;;;;;;;25.44;57.99;99899.91;4993301;28;20029;-76
2022/07/01 00:18:37;;;;;;;0.20;0.20;;;;;;;25.46;58.00;99898.19;4993681;28;20173;-75
2022/07/01 00:21:03;;;;;;;0.10;0.10;;;;;;;25.53;58.30;99897.88;4992859;28;20493;-76
2022/07/01 00:23:29;;;;;;;0.10;0.10;;;;;;;25.47;58.97;99894.06;4993271;28;20042;-76
2022/07/01 00:25:55;;;;;;;0.20;0.20;;;;;;;25.33;59.96;99888.97;4993501;28;20030;-76
2022/07/01 00:28:20;;;;;;;0.20;0.20;;;;;;;25.36;59.83;99885.19;4993215;28;20034;-76
2022/07/01 00:30:47;;;;;;;0.10;0.10;;;;;;;25.30;60.99;99896.41;4993310;28;20271;-76
2022/07/01 00:33:13;;;;;;;0.10;0.10;;;;;;;25.42;61.39;99896.75;4993841;28;20093;-78
2022/07/01 00:35:38;;;;;;;0.10;0.10;;;;;;;25.36;61.31;99907.97;4993128;28;20027;-75
2022/07/01 00:38:04;;;;;;;0.20;0.20;;;;;;;25.38;61.37;99905.44;4993707;28;20034;-76
2022/07/01 00:40:29;;;;;;;0.20;0.20;;;;;;;25.37;61.96;99905.91;4993226;28;20474;-75
2022/07/01 00:42:57;;;;;;;0.10;0.10;;;;;;;25.30;61.76;99913.50;4993155;28;20030;-75
2022/07/01 00:45:23;;;;;;;0.10;0.10;;;;;;;25.33;61.78;99923.13;4994394;28;20034;-75
2022/07/01 00:47:49;;;;;;;0.15;0.15;;;;;;;25.27;61.31;99920.13;4993256;28;20354;-75
2022/07/01 00:50:17;;;;;;;0.10;0.10;;;;;;;25.29;61.45;99916.78;4992936;28;20117;-76
2022/07/01 00:52:44;;;;;;;0.15;0.15;;;;;;;25.27;61.19;99925.03;4992823;28;20023;-76
2022/07/01 00:55:13;;;;;;;0.20;0.20;;;;;;;25.22;61.69;99925.63;4993376;28;20089;-75
2022/07/01 00:57:42;;;;;;;0.10;0.10;;;;;;;25.16;61.75;99930.38;4992474;28;20058;-76
2022/07/01 01:00:20;;;;;;;0.10;0.10;;;;;;;25.15;62.26;99937.34;4990578;28;20038;-76
2022/07/01 01:02:49;;;;;;;0.15;0.15;;;;;;;25.19;61.24;99932.25;4994472;28;20089;-77
2022/07/01 01:05:15;;;;;;;0.10;0.10;;;;;;;25.20;61.69;99933.88;4992764;28;20066;-77
2022/07/01 01:07:41;;;;;;;0.10;0.10;;;;;;;25.12;61.75;99929.72;4994085;28;20077;-75
2022/07/01 01:10:06;;;;;;;0.10;0.10;;;;;;;25.12;62.53;99926.88;4993391;28;20500;-77
2022/07/01 01:12:33;;;;;;;0.20;0.20;;;;;;;25.17;61.92;99931.94;4992276;28;20405;-77
2022/07/01 01:14:59;;;;;;;0.20;0.20;;;;;;;25.15;61.57;99923.88;4992041;28;20057;-77
2022/07/01 01:17:24;;;;;;;0.10;0.10;;;;;;;25.10;62.33;99923.72;4992008;28;20477;-76
2022/07/01 01:19:53;;;;;;;0.20;0.20;;;;;;;25.05;62.20;99911.66;4992452;28;20054;-77
2022/07/01 01:22:19;;;;;;;0.10;0.10;;;;;;;25.03;62.44;99910.50;4993913;28;20046;-75
2022/07/01 01:24:47;;;;;;;0.10;0.10;;;;;;;25.04;62.56;99917.81;4992181;28;20092;-76
2022/07/01 01:27:16;;;;;;;0.10;0.10;;;;;;;25.05;62.75;99916.53;4992125;28;20030;-75
2022/07/01 01:29:42;;;;;;;0.10;0.10;;;;;;;25.10;62.14;99915.16;4992274;28;20039;-75
2022/07/01 01:32:08;;;;;;;0.10;0.10;;;;;;;25.06;62.57;99918.16;4992141;28;20035;-75
2022/07/01 01:34:38;;;;;;;0.10;0.10;;;;;;;25.12;62.63;99912.63;4992055;28;20037;-76
2022/07/01 01:37:05;;;;;;;0.10;0.10;;;;;;;25.05;63.18;99914.50;4992090;28;20034;-75
2022/07/01 01:39:30;;;;;;;0.10;0.10;;;;;;;24.96;63.94;99922.19;4992230;28;20038;-75
2022/07/01 01:41:56;;;;;;;0.20;0.20;;;;;;;24.96;64.23;99927.88;4992135;28;20056;-75
2022/07/01 01:44:22;;;;;;;0.10;0.10;;;;;;;24.98;63.98;99920.47;4992045;28;20036;-75
2022/07/01 01:46:48;;;;;;;0.10;0.10;;;;;;;25.02;63.36;99920.31;4991927;28;20026;-75
2022/07/01 01:49:14;;;;;;;0.10;0.10;;;;;;;24.92;64.14;99918.69;4991814;28;20109;-75
2022/07/01 01:51:39;;;;;;;0.20;0.20;;;;;;;24.90;63.94;99909.84;4991911;28;20038;-75
2022/07/01 01:54:05;;;;;;;0.10;0.10;;;;;;;24.80;63.97;99915.47;4991936;28;20370;-77
2022/07/01 01:56:31;;;;;;;0.10;0.10;;;;;;;24.79;64.38;99913.13;4991970;28;20109;-75
2022/07/01 01:58:58;;;;;;;0.10;0.10;;;;;;;24.86;64.83;99918.50;4992302;28;20046;-75
2022/07/01 02:01:24;;;;;;;0.10;0.10;;;;;;;25.00;64.07;99909.41;4992035;28;20117;-75
2022/07/01 02:03:53;;;;;;;0.10;0.10;;;;;;;24.86;64.84;99909.97;4991991;28;20121;-75
2022/07/01 02:06:20;;;;;;;0.10;0.10;;;;;;;24.88;64.82;99924.56;4993368;28;20473;-75
2022/07/01 02:08:46;;;;;;;0.10;0.10;;;;;;;24.83;64.63;99925.94;4992238;28;20034;-75
2022/07/01 02:11:12;;;;;;;0.10;0.10;;;;;;;24.79;64.84;99922.44;4995439;28;20381;-75
2022/07/01 02:13:38;;;;;;;0.10;0.10;;;;;;;24.78;64.90;99922.91;4995436;28;20448;-75
2022/07/01 02:16:04;;;;;;;0.10;0.10;;;;;;;24.80;64.92;99929.72;4995352;28;20023;-75
2022/07/01 02:18:30;;;;;;;0.10;0.10;;;;;;;24.72;64.76;99925.56;4995156;28;20042;-75
2022/07/01 02:20:56;;;;;;;0.10;0.10;;;;;;;24.77;64.79;99921.34;4994686;28;20050;-76
2022/07/01 02:23:21;;;;;;;0.10;0.10;;;;;;;24.82;64.42;99934.94;4994847;28;20030;-75
2022/07/01 02:25:48;;;;;;;0.10;0.10;;;;;;;24.72;64.63;99925.56;4994736;28;20085;-75
2022/07/01 02:28:14;;;;;;;0.10;0.10;;;;;;;24.69;64.85;99937.88;4994866;28;20084;-75
2022/07/01 02:30:40;;;;;;;0.10;0.10;;;;;;;24.69;64.84;99931.41;4994888;28;20026;-75
2022/07/01 02:33:06;;;;;;;0.10;0.10;;;;;;;24.71;64.54;99940.25;4994759;28;20389;-75
2022/07/01 02:35:33;;;;;;;0.10;0.10;;;;;;;24.63;64.43;99944.63;4994722;28;20041;-76
2022/07/01 02:37:59;;;;;;;0.10;0.10;;;;;;;24.60;64.88;99943.50;4994767;28;20022;-75
2022/07/01 02:40:25;;;;;;;0.10;0.10;;;;;;;24.58;64.67;99942.41;4978409;28;20084;-75
2022/07/01 02:42:51;;;;;;;0.10;0.10;;;;;;;24.61;64.38;99955.66;4994420;28;20030;-76
2022/07/01 02:45:16;;;;;;;0.10;0.10;;;;;;;24.56;64.93;99946.50;4994331;28;20038;-75
2022/07/01 02:47:42;;;;;;;0.15;0.15;;;;;;;24.58;65.58;99939.56;4994087;28;20117;-76
2022/07/01 02:50:10;;;;;;;0.17;0.17;;;;;;;24.54;65.84;99943.31;4994496;28;20066;-75
2022/07/01 02:52:37;;;;;;;0.13;0.13;;;;;;;24.44;66.20;99958.72;4978036;28;20026;-76
2022/07/01 02:55:04;;;;;;;0.10;0.10;;;;;;;24.49;66.55;99954.50;4994132;28;20037;-75
2022/07/01 02:57:30;;;;;;;0.10;0.10;;;;;;;24.45;66.20;99946.13;4993993;28;20032;-75
2022/07/01 02:59:57;;;;;;;0.10;0.10;;;;;;;24.45;66.17;99951.81;4994080;28;20030;-76
2022/07/01 03:02:24;;;;;;;0.10;0.10;;;;;;;24.42;66.72;99952.72;4994348;28;20026;-76
2022/07/01 03:04:51;;;;;;;0.10;0.10;;;;;;;24.36;67.05;99942.41;4994186;28;20030;-76
2022/07/01 03:07:18;;;;;;;0.10;0.10;;;;;;;24.39;67.22;99947.16;4995437;28;20027;-75
2022/07/01 03:09:44;;;;;;;0.20;0.20;;;;;;;24.42;67.18;99946.25;4994007;28;20038;-76
2022/07/01 03:12:34;;;;;;;0.10;0.10;;;;;;;24.45;66.90;99951.81;4994249;28;20480;-75
2022/07/01 03:15:16;;;;;;;0.10;0.10;;;;;;;24.51;66.64;99964.16;4994079;28;20038;-75
2022/07/01 03:17:43;;;;;;;0.10;0.10;;;;;;;24.58;66.52;99973.69;4994240;28;20196;-76
2022/07/01 03:20:13;;;;;;;0.10;0.10;;;;;;;24.52;66.33;99979.97;4993473;28;20054;-76
2022/07/01 03:22:40;;;;;;;0.13;0.13;;;;;;;24.48;66.82;99972.81;4994061;28;20022;-76
2022/07/01 03:25:06;;;;;;;0.20;0.20;;;;;;;24.40;67.31;99971.53;4993770;28;20551;-75
2022/07/01 03:27:36;;;;;;;0.20;0.20;;;;;;;24.47;67.15;99983.41;4993813;28;20117;-75
2022/07/01 03:30:05;;;;;;;0.20;0.20;;;;;;;24.50;67.21;99993.88;4993204;28;20030;-75
2022/07/01 03:32:30;;;;;;;0.10;0.10;;;;;;;24.60;66.46;99996.75;4993702;28;20489;-76
2022/07/01 03:34:56;;;;;;;0.20;0.20;;;;;;;24.59;66.60;100000.88;4993638;28;20042;-76
2022/07/01 03:37:23;;;;;;;0.10;0.10;;;;;;;24.49;66.68;100000.00;4993627;28;20026;-75
2022/07/01 03:39:53;;;;;;;0.10;0.10;;;;;;;24.52;67.04;100001.94;4993390;28;20125;-74
2022/07/01 03:42:19;;;;;;;0.10;0.10;;;;;;;24.54;66.82;100017.25;4993326;28;20021;-75
2022/07/01 03:44:44;;;;;;;0.10;0.10;;;;;;;24.59;67.11;100012.25;4993630;28;20042;-75
2022/07/01 03:47:10;;;;;;;0.10;0.10;;;;;;;24.71;66.56;100017.06;4993350;28;20030;-76
2022/07/01 03:49:36;;;;;;;0.10;0.10;;;;;;;24.82;65.90;100025.97;4993085;28;20481;-75
2022/07/01 03:52:05;;;;;;;0.10;0.10;;;;;;;24.84;65.31;100017.78;4994348;28;20023;-75
2022/07/01 03:54:37;;;;;;;0.20;0.20;;;;;;;24.86;64.78;100020.94;4993118;28;20062;-75
2022/07/01 03:57:05;;;;;;;0.10;0.10;;;;;;;24.88;65.43;100027.00;4992797;28;20029;-75
2022/07/01 03:59:35;;;;;;;0.20;0.20;;;;;;;24.77;65.98;100035.94;4995175;28;20035;-76
2022/07/01 04:02:01;;;;;;;0.10;0.10;;;;;;;24.80;65.92;100037.81;4993623;28;20022;-75
2022/07/01 04:04:27;;;;;;;0.10;0.10;;;;;;;25.10;65.24;100051.81;4977706;28;20038;-76
2022/07/01 04:06:55;;;;;;;0.10;0.10;;;;;;;25.45;64.24;100049.56;4994128;28;20117;-75
2022/07/01 04:09:21;;;;;;;0.10;0.10;;;;;;;25.80;62.42;100053.06;4994782;28;20042;-75
2022/07/01 04:11:48;;;;;;;0.10;0.10;;;;;;;26.13;61.82;100054.06;4977930;28;20034;-76
2022/07/01 04:14:14;;;;;;;0.10;0.10;;;;;;;26.48;59.55;100053.03;4994755;28;20034;-75
2022/07/01 04:16:41;;;;;;;0.10;0.10;;;;;;;26.79;58.79;100061.38;4993456;28;20456;-76
2022/07/01 04:19:09;;;;;;;0.10;0.10;;;;;;;27.09;58.05;100068.97;4993170;28;20050;-75
2022/07/01 04:24:25;;;;;;;0.10;0.10;;;;;;;27.78;55.45;100087.31;4995106;28;20046;-76
2022/07/01 04:26:54;;;;;;;0.10;0.10;;;;;;;28.14;54.54;100102.69;4993165;28;20121;-74
2022/07/01 04:29:19;;;;;;;0.10;0.10;;;;;;;28.52;53.20;100110.53;4993115;28;20099;-75
2022/07/01 04:31:45;;;;;;;0.10;0.10;;;;;;;28.81;52.09;100109.00;4992478;28;20039;-76
2022/07/01 04:34:11;;;;;;;0.10;0.10;;;;;;;29.10;51.45;100123.41;4993419;28;20108;-76
2022/07/01 04:36:37;;;;;;;0.10;0.10;;;;;;;29.47;50.86;100125.91;4992546;28;20436;-76
2022/07/01 04:39:04;;;;;;;0.10;0.10;;;;;;;29.65;50.05;100142.09;4993176;28;20117;-75
2022/07/01 04:44:18;;;;;;;0.10;0.10;;;;;;;30.26;48.17;100156.63;4994604;28;20124;-76
2022/07/01 04:46:44;;;;;;;0.10;0.10;;;;;;;30.13;48.52;100148.34;4993095;28;20030;-76
2022/07/01 04:49:10;;;;;;;0.10;0.10;;;;;;;29.72;49.73;100151.09;4994088;28;20027;-76
2022/07/01 04:51:36;;;;;;;0.10;0.10;;;;;;;29.53;50.25;100118.19;4993073;28;20495;-75
2022/07/01 04:54:08;;;;;;;0.10;0.10;;;;;;;29.56;51.02;100154.47;4992979;28;20023;-76
2022/07/01 04:56:34;;;;;;;0.10;0.10;;;;;;;29.49;49.87;100158.50;4994337;28;20026;-77
2022/07/01 04:59:01;;;;;;;0.10;0.10;;;;;;;29.44;50.53;100161.25;4992873;28;20041;-77
2022/07/01 05:01:28;;;;;;;0.10;0.10;;;;;;;29.62;49.78;100166.03;4993607;28;20373;-76
2022/07/01 05:03:57;;;;;;;0.10;0.10;;;;;;;29.83;49.87;100166.88;4993645;28;20367;-77
2022/07/01 05:06:23;;;;;;;0.10;0.10;;;;;;;29.61;50.68;100159.50;4992808;28;20034;-77
2022/07/01 05:08:48;;;;;;;0.10;0.10;;;;;;;29.64;50.28;100169.97;4992913;28;20041;-76
2022/07/01 05:11:14;;;;;;;0.10;0.10;;;;;;;29.26;51.51;100167.97;4992986;28;20033;-76
2022/07/01 05:13:40;;;;;;;0.10;0.10;;;;;;;29.02;52.46;100158.66;4992715;28;20129;-75
2022/07/01 05:16:08;;;;;;;0.10;0.10;;;;;;;28.68;53.23;100153.03;4992696;28;20118;-76
2022/07/01 05:24:07;;;;;;;0.10;0.10;;;;;;;28.74;52.38;100155.22;4993748;28;20147;-76
2022/07/01 05:26:33;;;;;;;0.10;0.10;;;;;;;28.75;52.64;100149.00;4992538;28;20026;-76
2022/07/01 05:28:59;;;;;;;0.10;0.10;;;;;;;28.51;52.81;100154.75;4976236;28;20089;-75
2022/07/01 05:31:25;;;;;;;0.10;0.10;;;;;;;27.93;54.39;100159.66;4992941;28;20022;-75
2022/07/01 05:33:51;;;;;;;0.10;0.10;;;;;;;27.80;54.21;100149.69;4992538;28;20133;-75
2022/07/01 05:36:17;;;;;;;0.10;0.10;;;;;;;27.89;53.95;100143.94;4992618;28;20031;-75
2022/07/01 05:38:43;;;;;;;0.10;0.10;;;;;;;28.32;53.52;100141.81;4992421;28;20483;-75
2022/07/01 05:41:08;;;;;;;0.10;0.10;;;;;;;28.54;53.33;100152.97;4992518;28;20041;-75
2022/07/01 05:43:34;;;;;;;0.10;0.10;;;;;;;28.34;53.69;100150.75;4994176;28;20067;-78
2022/07/01 05:46:01;;;;;;;0.17;0.17;;;;;;;28.40;52.88;100151.66;4996372;28;20026;-77
2022/07/01 05:48:29;;;;;;;0.10;0.10;;;;;;;28.92;52.18;100160.78;4996563;28;20562;-78
2022/07/01 05:50:56;;;;;;;0.10;0.10;;;;;;;29.35;50.44;100164.22;4996060;28;20027;-75
2022/07/01 05:53:22;;;;;;;0.10;0.10;;;;;;;29.89;49.86;100167.78;4995519;28;20096;-74
2022/07/01 05:55:48;;;;;;;0.10;0.10;;;;;;;30.73;47.13;100181.28;4996475;28;20042;-74
2022/07/01 05:58:14;;;;;;;0.10;0.10;;;;;;;31.28;45.44;100177.50;4996913;28;20034;-75
2022/07/01 06:00:44;;;;;;;0.20;0.20;;;;;;;31.81;44.48;100164.69;4996001;28;20059;-75
2022/07/01 06:03:14;;;;;;;0.10;0.10;;;;;;;31.90;44.43;100157.16;4996367;28;20045;-75
2022/07/01 06:05:41;;;;;;;0.10;0.10;;;;;;;31.78;45.27;100157.03;4996030;28;20030;-74
2022/07/01 06:08:07;;;;;;;0.10;0.10;;;;;;;32.18;44.44;100161.03;4979463;28;20035;-75
2022/07/01 06:10:36;;;;;;;0.10;0.10;;;;;;;31.88;44.90;100159.75;4997163;28;20026;-77
2022/07/01 06:13:06;;;;;;;0.10;0.10;;;;;;;32.41;43.41;100143.91;4996154;28;20031;-76
2022/07/01 06:15:31;;;;;;;0.10;0.10;;;;;;;31.83;45.08;100134.63;4997113;28;20030;-76
2022/07/01 06:17:57;;;;;;;0.20;0.20;;;;;;;31.33;47.01;100121.38;4996779;28;20034;-76
2022/07/01 06:20:23;;;;;;;0.10;0.10;;;;;;;30.63;48.62;100128.16;4996046;28;20054;-77
2022/07/01 06:22:48;;;;;;;0.10;0.10;;;;;;;30.50;49.86;100108.41;4995855;28;20492;-76
2022/07/01 06:25:14;;;;;;;0.10;0.10;;;;;;;31.56;47.26;100110.84;4995662;28;20488;-76
2022/07/01 06:27:41;;;;;;;0.10;0.10;;;;;;;31.43;47.80;100110.50;4995833;28;20030;-76
2022/07/01 06:30:08;;;;;;;0.10;0.10;;;;;;;31.81;46.57;100106.38;4995388;28;20101;-77
2022/07/01 06:32:33;;;;;;;0.10;0.10;;;;;;;31.59;46.16;100098.34;4995401;28;20030;-76
2022/07/01 06:34:59;;;;;;;0.10;0.10;;;;;;;30.57;48.14;100089.97;4995899;28;20041;-76
2022/07/01 06:37:24;;;;;;;0.10;0.10;;;;;;;31.29;46.81;100081.38;4995680;28;20491;-76
2022/07/01 06:39:50;;;;;;;0.10;0.10;;;;;;;31.96;44.99;100084.00;4995139;28;20034;-75
2022/07/01 06:42:15;;;;;;;0.10;0.10;;;;;;;32.07;44.65;100077.50;4995311;28;20038;-77
2022/07/01 06:44:41;;;;;;;0.10;0.10;;;;;;;30.70;48.32;100063.78;4995266;28;20031;-76
2022/07/01 06:47:07;;;;;;;0.10;0.10;;;;;;;29.79;48.82;100060.22;4995444;28;20060;-76
2022/07/01 06:49:32;;;;;;;0.10;0.10;;;;;;;29.71;50.36;100057.75;4995190;28;20030;-76
2022/07/01 06:51:58;;;;;;;0.10;0.10;;;;;;;29.45;49.28;100045.34;4995030;28;20030;-76
2022/07/01 06:54:23;;;;;;;0.10;0.10;;;;;;;29.50;50.51;100044.63;4995083;28;20494;-76
2022/07/01 06:56:49;;;;;;;0.10;0.10;;;;;;;30.10;47.83;100033.81;4995060;28;20035;-76
2022/07/01 06:59:15;;;;;;;0.10;0.10;;;;;;;30.44;46.92;100024.31;4994747;28;20077;-76
2022/07/01 07:01:41;;;;;;;0.10;0.10;;;;;;;30.41;47.84;100015.91;4995147;28;20039;-76
2022/07/01 07:04:07;;;;;;;0.10;0.10;;;;;;;30.90;46.15;100008.38;4994732;28;20037;-75
2022/07/01 07:06:32;;;;;;;0.10;0.10;;;;;;;31.17;45.83;100002.09;4994449;28;20031;-75
2022/07/01 07:08:58;;;;;;;0.10;0.10;;;;;;;31.04;45.08;99996.75;4994910;28;20166;-74
2022/07/01 07:11:23;;;;;;;0.10;0.10;;;;;;;31.27;44.71;99997.75;4994504;28;20440;-75
2022/07/01 07:13:49;;;;;;;0.10;0.10;;;;;;;31.40;44.73;99985.03;4994127;28;20026;-76
2022/07/01 07:16:14;;;;;;;0.10;0.10;;;;;;;32.06;42.92;100003.97;4994229;28;20018;-75
2022/07/01 07:18:40;;;;;;;0.10;0.10;;;;;;;33.09;39.80;100007.41;4993931;28;20037;-84
2022/07/01 07:21:06;;;;;;;0.10;0.10;;;;;;;33.17;40.20;100001.91;4994215;28;20078;-75
2022/07/01 07:23:31;;;;;;;0.10;0.10;;;;;;;33.36;39.49;100009.50;4994211;28;20026;-75
2022/07/01 07:25:57;;;;;;;0.10;0.10;;;;;;;34.44;37.82;100007.09;4994597;28;20072;-76
2022/07/01 07:28:23;;;;;;;0.10;0.10;;;;;;;34.21;37.33;99995.66;4994245;28;20534;-77
2022/07/01 07:30:48;;;;;;;0.10;0.10;;;;;;;33.96;38.15;99996.81;4994006;28;20034;-75
2022/07/01 07:33:14;;;;;;;0.10;0.10;;;;;;;34.07;38.03;99996.78;4993872;28;20027;-75
2022/07/01 07:35:39;;;;;;;0.10;0.10;;;;;;;33.94;38.77;100008.13;4994519;28;20027;-75
2022/07/01 07:38:07;;;;;;;0.10;0.10;;;;;;;34.20;37.40;100004.84;4993776;28;20385;-75
2022/07/01 07:40:33;;;;;;;0.10;0.10;;;;;;;34.39;35.82;99989.25;4993466;28;20563;-76
2022/07/01 07:42:59;;;;;;;0.10;0.10;;;;;;;34.28;35.97;99977.78;4994008;28;20026;-76
2022/07/01 07:45:24;;;;;;;0.10;0.10;;;;;;;34.49;36.16;99980.31;4993982;28;20088;-75
2022/07/01 07:47:51;;;;;;;0.20;0.20;;;;;;;35.12;35.53;99979.34;4993872;28;20030;-75
2022/07/01 07:50:17;;;;;;;0.10;0.10;;;;;;;35.43;34.74;99987.44;4994271;28;20030;-75
2022/07/01 07:52:42;;;;;;;0.10;0.10;;;;;;;34.69;36.09;99971.25;4993776;28;20026;-75
2022/07/01 07:55:09;;;;;;;0.10;0.10;;;;;;;35.76;34.31;99973.97;4993832;28;20088;-75
2022/07/01 07:57:36;;;;;;;0.10;0.10;;;;;;;36.29;32.70;99968.59;4993673;28;20029;-75
2022/07/01 08:00:03;;;;;;;0.10;0.10;;;;;;;36.46;32.51;99965.47;4993437;28;20069;-76
2022/07/01 08:02:29;;;;;;;0.10;0.10;;;;;;;36.82;31.12;99957.28;4994553;28;20030;-76
2022/07/01 08:04:54;;;;;;;0.10;0.10;;;;;;;36.04;32.39;99955.50;4993623;28;20037;-75
2022/07/01 08:07:20;;;;;;;0.10;0.10;;;;;;;35.41;33.77;99940.91;4993526;28;20031;-75
2022/07/01 08:09:47;;;;;;;0.10;0.10;;;;;;;36.20;32.27;99942.91;4994049;28;20068;-76
2022/07/01 08:12:13;;;;;;;0.10;0.10;;;;;;;35.46;33.29;99947.22;4993382;28;20058;-75
2022/07/01 08:14:38;;;;;;;0.10;0.10;;;;;;;35.35;33.62;99948.88;4995175;28;20058;-75
2022/07/01 08:17:04;;;;;;;0.10;0.10;;;;;;;35.03;34.38;99956.53;4993152;28;20373;-75
2022/07/01 08:19:30;;;;;;;0.10;0.10;;;;;;;34.79;34.76;99969.59;4992923;28;20054;-75
2022/07/01 08:21:56;;;;;;;0.10;0.10;;;;;;;35.14;34.64;99965.91;4993244;28;20027;-76
2022/07/01 08:24:21;;;;;;;0.10;0.10;;;;;;;34.39;35.68;99989.25;4993236;28;20441;-75
2022/07/01 08:26:47;;;;;;;0.10;0.10;;;;;;;34.82;35.09;99980.06;4992887;28;20038;-75
2022/07/01 08:29:13;;;;;;;0.10;0.10;;;;;;;35.15;34.42;99978.25;4977019;28;20037;-75
2022/07/01 08:31:39;;;;;;;0.10;0.10;;;;;;;35.63;33.10;99982.53;4993207;28;20488;-75
2022/07/01 08:34:04;;;;;;;0.10;0.10;;;;;;;37.03;31.70;99980.66;4993436;28;20049;-75
2022/07/01 08:36:30;;;;;;;0.10;0.10;;;;;;;37.41;29.52;99978.44;4993574;28;20030;-75
2022/07/01 08:38:56;;;;;;;0.10;0.10;;;;;;;37.06;30.18;99972.97;4993129;28;20390;-75
2022/07/01 08:41:21;;;;;;;0.10;0.10;;;;;;;35.64;32.44;99969.66;4993056;28;20334;-75
2022/07/01 08:43:47;;;;;;;0.10;0.10;;;;;;;35.60;32.56;99966.25;4993420;28;20129;-76
2022/07/01 08:46:12;;;;;;;0.10;0.10;;;;;;;36.16;31.33;99951.13;4992961;28;20026;-75
2022/07/01 08:48:42;;;;;;;0.10;0.10;;;;;;;36.47;30.24;99967.81;4993672;28;20038;-75
2022/07/01 08:51:08;;;;;;;0.10;0.10;;;;;;;36.18;31.47;99969.53;4992771;28;20026;-76
2022/07/01 08:53:34;;;;;;;0.10;0.10;;;;;;;36.85;29.96;99967.75;4992864;28;20033;-76
2022/07/01 08:58:45;;;;;;;0.10;0.10;;;;;;;37.28;29.59;99968.88;4994326;28;20134;-76
2022/07/01 09:01:13;;;;;;;0.10;0.10;;;;;;;37.03;30.06;99971.97;4993899;28;20065;-83
2022/07/01 09:03:39;;;;;;;0.10;0.10;;;;;;;36.82;29.82;99963.06;4992893;28;20481;-78
2022/07/01 09:06:17;;;;;;;0.10;0.10;;;;;;;36.34;30.13;99959.03;4994031;28;20109;-75
2022/07/01 09:08:44;;;;;;;0.10;0.10;;;;;;;35.73;30.86;99968.47;4992797;28;20040;-74
2022/07/01 09:11:17;;;;;;;0.10;0.10;;;;;;;35.31;28.37;99974.41;4992774;28;20393;-76
2022/07/01 09:13:44;;;;;;;0.10;0.10;;;;;;;34.79;29.91;99969.59;4993562;28;20373;-75
2022/07/01 09:16:16;;;;;;;0.10;0.10;;;;;;;35.61;28.66;99974.41;4992672;28;20037;-76
2022/07/01 09:19:04;;;;;;;0.10;0.10;;;;;;;36.35;28.57;99972.19;4994260;28;20426;-73
2022/07/01 09:21:30;;;;;;;0.10;0.10;;;;;;;36.64;27.97;99969.66;4999951;28;20034;-74
2022/07/01 09:23:58;;;;;;;0.10;0.10;;;;;;;36.14;29.75;99962.47;4999931;28;20030;-75
2022/07/01 09:26:27;;;;;;;0.10;0.10;;;;;;;36.10;30.16;99970.69;4999735;28;20030;-75
2022/07/01 09:28:54;;;;;;;0.10;0.10;;;;;;;36.09;29.22;99972.78;5000595;28;20464;-76
2022/07/01 09:31:20;;;;;;;0.10;0.10;;;;;;;36.45;29.06;99969.69;4999471;28;20033;-76
2022/07/01 09:34:01;;;;;;;0.10;0.10;;;;;;;35.98;29.55;99970.03;4999485;28;20053;-76
2022/07/01 09:36:27;;;;;;;0.10;0.10;;;;;;;36.65;28.72;99974.16;4999283;28;20044;-77
2022/07/01 09:38:52;;;;;;;0.10;0.10;;;;;;;37.03;28.49;99971.19;4999555;28;20030;-76
2022/07/01 09:41:23;;;;;;;0.10;0.10;;;;;;;37.86;26.24;99989.19;4999847;28;20088;-75
2022/07/01 09:43:49;;;;;;;0.10;0.10;;;;;;;37.78;23.91;99978.78;4999182;28;20029;-75
2022/07/01 09:46:16;;;;;;;0.10;0.10;;;;;;;37.26;24.35;99968.69;4999346;28;20121;-75
2022/07/01 09:48:45;;;;;;;0.10;0.10;;;;;;;36.84;26.41;99963.28;5016580;28;20030;-76
2022/07/01 09:51:13;;;;;;;0.10;0.10;;;;;;;37.57;24.74;99958.38;4999180;28;20036;-76
2022/07/01 09:53:38;;;;;;;0.10;0.10;;;;;;;37.75;24.66;99966.94;4999446;28;20508;-76
2022/07/01 09:56:04;;;;;;;0.10;0.10;;;;;;;36.99;25.42;99957.00;4999465;28;20030;-78
2022/07/01 09:58:32;;;;;;;0.10;0.10;;;;;;;36.24;24.32;99949.16;4999461;28;20022;-76
2022/07/01 10:00:58;;;;;;;0.10;0.10;;;;;;;36.60;23.99;99951.84;4999135;28;20034;-76
2022/07/01 10:03:26;;;;;;;0.10;0.10;;;;;;;37.28;24.29;99963.88;4998970;28;20070;-76
2022/07/01 10:06:16;;;;;;;0.10;0.10;;;;;;;38.03;23.33;99956.13;4999168;28;20069;-77
2022/07/01 10:09:12;;;;;;;0.10;0.10;;;;;;;36.95;26.81;99933.34;4999060;28;20104;-76
2022/07/01 10:12:08;;;;;;;0.10;0.10;;;;;;;36.54;26.27;99945.31;4999558;28;20091;-75
2022/07/01 10:14:38;;;;;;;0.10;0.10;;;;;;;37.71;26.09;99965.72;4998828;28;20080;-77
2022/07/01 10:17:05;;;;;;;0.10;0.10;;;;;;;37.02;25.70;99969.59;4999725;28;20449;-76
2022/07/01 10:19:33;;;;;;;0.10;0.10;;;;;;;37.03;28.07;99968.28;4982502;28;20086;-76
2022/07/01 10:22:28;;;;;;;0.10;0.10;;;;;;;37.26;27.85;99977.38;4998878;28;20022;-76
2022/07/01 10:24:55;;;;;;;0.10;0.10;;;;;;;37.86;27.22;99983.38;4991595;28;20045;-77
2022/07/01 10:27:23;;;;;;;0.10;0.10;;;;;;;37.72;31.16;99987.63;4999292;28;20428;-77
2022/07/01 10:29:49;;;;;;;0.10;0.10;;;;;;;37.83;32.44;99984.53;5015413;28;20033;-75
2022/07/01 10:32:21;;;;;;;0.10;0.10;;;;;;;36.94;33.73;99993.47;4998584;28;20018;-75
2022/07/01 10:34:46;;;;;;;0.10;0.10;;;;;;;36.80;32.66;100006.28;4998619;28;20101;-74
2022/07/01 10:37:13;;;;;;;0.10;0.10;;;;;;;37.37;31.58;99994.59;4998736;28;20054;-74
2022/07/01 10:39:53;;;;;;;0.10;0.10;;;;;;;38.03;30.66;100003.34;4998481;28;20496;-74
2022/07/01 10:42:20;;;;;;;0.10;0.10;;;;;;;38.23;29.46;100001.88;4998315;28;20029;-74
2022/07/01 10:45:07;;;;;;;0.10;0.10;;;;;;;37.94;30.28;99986.41;4998315;28;20034;-74
2022/07/01 10:47:32;;;;;;;0.10;0.10;;;;;;;37.85;30.03;99990.53;4995393;28;20514;-74
2022/07/01 10:50:10;;;;;;;0.10;0.10;;;;;;;37.76;29.14;99985.13;4998178;28;20116;-75
2022/07/01 10:52:36;;;;;;;0.10;0.10;;;;;;;38.15;29.13;99984.38;4998247;28;20029;-75
2022/07/01 10:55:04;;;;;;;0.10;0.10;;;;;;;38.31;28.79;99993.31;4998035;28;20065;-75
2022/07/01 10:57:41;;;;;;;0.10;0.10;;;;;;;37.54;29.19;99991.38;4998194;28;20029;-76
2022/07/01 11:00:06;;;;;;;0.10;0.10;;;;;;;37.52;29.12;100005.69;4998175;28;20030;-75
2022/07/01 11:02:34;;;;;;;0.10;0.10;;;;;;;37.94;28.88;100000.94;4998160;28;20026;-75
2022/07/01 11:05:03;;;;;;;0.10;0.10;;;;;;;37.44;28.56;99988.91;4998477;28;20380;-77
2022/07/01 11:07:35;;;;;;;0.10;0.10;;;;;;;37.43;28.33;99986.56;4997958;28;20029;-75
2022/07/01 11:10:06;;;;;;;0.10;0.10;;;;;;;37.27;28.06;100002.91;4998478;28;20030;-75
2022/07/01 11:12:31;;;;;;;0.10;0.10;;;;;;;36.52;28.86;99991.47;4997821;28;20029;-75
2022/07/01 11:15:01;;;;;;;0.10;0.10;;;;;;;36.89;28.74;99974.03;4997703;28;20040;-75
2022/07/01 11:17:27;;;;;;;0.10;0.10;;;;;;;36.52;29.31;99976.97;5015604;28;20469;-75
2022/07/01 11:19:57;;;;;;;0.10;0.10;;;;;;;36.90;28.70;99974.81;4997557;28;20046;-77
2022/07/01 11:22:29;;;;;;;0.10;0.10;;;;;;;37.31;29.00;99976.50;4997534;28;20121;-77
2022/07/01 11:24:56;;;;;;;0.10;0.10;;;;;;;37.94;27.87;99983.50;4997754;28;20061;-75
2022/07/01 11:27:22;;;;;;;0.10;0.10;;;;;;;38.04;25.34;100002.03;4997505;28;20032;-76
2022/07/01 11:30:13;;;;;;;0.10;0.10;;;;;;;38.67;24.65;99993.50;4997504;28;20113;-76
2022/07/01 11:32:45;;;;;;;0.10;0.10;;;;;;;38.55;24.33;99986.41;4997408;28;20034;-75
2022/07/01 11:41:05;;;;;;;0.10;0.10;;;;;;;38.01;22.05;99969.06;5014626;28;20096;-75
2022/07/01 11:43:36;;;;;;;0.10;0.10;;;;;;;38.80;21.86;99981.09;4997480;28;20458;-75
2022/07/01 11:46:04;;;;;;;0.10;0.10;;;;;;;39.10;21.29;99981.41;5015068;28;20467;-75
2022/07/01 11:48:40;;;;;;;0.10;0.10;;;;;;;38.56;20.95;99999.59;4997079;28;20026;-75
2022/07/01 11:51:12;;;;;;;0.10;0.10;;;;;;;38.96;20.73;99995.22;4997151;28;20029;-76
2022/07/01 11:53:42;;;;;;;0.10;0.10;;;;;;;38.23;22.38;99990.25;4997608;28;20041;-75